Home   Weather   Lithuania   Šiauliai   Past weeks
Flag for Lithuania

Past Weather in Šiauliai, Lithuania — Yesterday and Last 2 Weeks

Currently: 82 °F. Passing clouds. (Weather station: Siauliai Intl./Mil., Lithuania). See more current weather

Past Weather in Šiauliai — Graph

°F

Šiauliai Temperature Yesterday

Maximum temperature yesterday: 82 °F (at 1:50 pm)
Minimum temperature yesterday: 55 °F (at 4:20 am)
Average temperature yesterday: 72 °F

High & Low Weather Summary for the Past Weeks

 TemperatureHumidityPressure
High82 °F (Jun 18, 1:50 pm)100% (Jun 12, 2:50 am)30.33 "Hg (Jun 12, 2:50 am)
Low45 °F (Jun 14, 5:20 am)31% (Jun 17, 3:20 pm)29.65 "Hg (Jun 12, 8:20 pm)
Average64 °F65%30.05 "Hg
* Reported Jun 4 11:20 am — Jun 19 11:50 am, Šiauliai. Weather by CustomWeather, © 2021

Note: Actual official high and low records may vary slightly from our data, if they occured in-between our weather recording intervals... More about our weather records

Šiauliai Weather History for the Previous 24 Hours

Scroll right to see more
 ConditionsComfort  
Time TempWeatherWind HumidityBarometerVisibility
11:50 am
Sat, Jun 19
82 °FPassing clouds.8 mph45%30.12 "HgN/A
11:20 am81 °FPassing clouds.8 mph48%30.12 "HgN/A
10:50 am81 °FPassing clouds.7 mph51%30.15 "HgN/A
10:20 am79 °FSunny.7 mph51%30.15 "Hg10 mi
9:50 am79 °FSunny.6 mph54%30.15 "Hg10 mi
9:20 am77 °FSunny.6 mph57%30.15 "Hg10 mi
8:50 am75 °FSunny.7 mph57%30.15 "Hg10 mi
8:20 am73 °FSunny.6 mph61%30.15 "Hg10 mi
7:50 am72 °FSunny.7 mph61%30.15 "Hg10 mi
7:20 am70 °FSunny.7 mph64%30.15 "Hg10 mi
6:50 am68 °FSunny.7 mph69%30.15 "Hg10 mi
6:20 am66 °FSunny.8 mph73%30.15 "Hg10 mi
5:50 am66 °FSunny.7 mph68%30.15 "Hg10 mi
5:20 am64 °FSunny.7 mph73%30.15 "Hg10 mi
4:50 am66 °FSunny.7 mph68%30.15 "Hg10 mi
4:20 am66 °FMild.8 mph68%30.15 "HgN/A
3:50 am66 °FMild.8 mph68%30.15 "HgN/A
3:20 am66 °FMild.7 mph73%30.15 "HgN/A
2:50 am61 °FCool.6 mph83%30.15 "HgN/A
2:20 am63 °FMild.6 mph77%30.15 "HgN/A
1:50 am63 °FMild.7 mph77%30.15 "HgN/A
1:20 am64 °FMild.7 mph73%30.15 "HgN/A
12:50 am64 °FClear.7 mph78%30.15 "Hg10 mi
12:20 am66 °FClear.5 mph73%30.15 "Hg10 mi
11:50 pm
Fri, Jun 18
68 °FClear.3 mph69%30.15 "Hg10 mi
11:20 pm68 °FClear.3 mph69%30.15 "Hg10 mi
10:50 pm70 °FClear.6 mph69%30.15 "Hg10 mi
10:20 pm70 °FClear.7 mph64%30.15 "Hg10 mi
9:50 pm72 °FSunny.6 mph65%30.15 "Hg10 mi
9:20 pm73 °FSunny.7 mph65%30.15 "Hg10 mi
8:50 pm77 °FSunny.7 mph54%30.15 "Hg10 mi
8:20 pm79 °FSunny.12 mph48%30.15 "Hg10 mi
7:50 pm81 °FSunny.9 mph48%30.12 "Hg10 mi
7:20 pm81 °FSunny.12 mph45%30.15 "Hg10 mi
6:50 pm82 °FPassing clouds.12 mph42%30.15 "HgN/A
6:20 pm82 °FSunny.12 mph42%30.15 "Hg10 mi
5:50 pm82 °FPassing clouds.12 mph42%30.15 "HgN/A
5:20 pm82 °FPassing clouds.12 mph42%30.15 "HgN/A
4:50 pm82 °FPassing clouds.14 mph40%30.18 "HgN/A
4:20 pm82 °FPassing clouds.12 mph40%30.18 "HgN/A
3:50 pm82 °FPassing clouds.9 mph40%30.18 "HgN/A
2:50 pm82 °FPassing clouds.10 mph40%30.18 "HgN/A
2:20 pm82 °FPassing clouds.12 mph40%30.18 "HgN/A
1:50 pm82 °FPassing clouds.13 mph40%30.18 "HgN/A
1:20 pm81 °FPassing clouds.10 mph37%30.18 "HgN/A
Weather by CustomWeather, © 2021

See weather overview